aviador You're here:

KSPW Decoded Metar

SPENCER in IA, USA
Report Time2018-04-24 01:53:00
UTC Time2018-04-24 02:52:05
Flight Rules vfr VFR
Wind060° at 06 kt
W.Decomp.*RWY 36: 3.4 kt HW 4.9 kt RCW
RWY 12: 2.5 kt HW 5.4 kt LCW
W.Rank060° ranks 36
Current wind is below 060° avg. (8.2)
Visibility9999 m
Phenomena:N/A
Clouds:N/A
Expected CloudBase > 2,000 ft AGL from Temp-Dew spread
CeilingNone
Temp11°C (ISA -1)
Dew Point06°C (72% RH)
AAT8.0°C
QNH1020 hPa
Density Alt1,053 ft
Elevation1,322 ft
Report Wrong Elevation
Raw Report
KSPW 240153Z AUTO 06006KT 10SM CLR 11/06 A3013 RMK AO2 SLP208
T01060061=

Extra information for KSPW:More info

Metar Taf Metar & Taf Last 4 Metars F.Rules Stats Wind Profile Meteogram Temp Stats Airport Information Weather charts Add Link Nearby VenuesMetar ALERT Operation Metar Decoded Social comments

AIRNAV info for KSPW